createdAt,value
2022-10-26T00:01:24.229Z,100836.69
2022-10-26T00:03:52.739Z,100829.88
2022-10-26T00:06:23.075Z,100837.59
2022-10-26T00:08:53.670Z,100833.31
2022-10-26T00:11:23.238Z,100834.25
2022-10-26T00:13:51.744Z,100835.16
2022-10-26T00:16:27.604Z,100833.53
2022-10-26T00:18:56.191Z,100838.66
2022-10-26T00:21:24.293Z,100836.06
2022-10-26T00:23:52.416Z,100829.25
2022-10-26T00:26:20.426Z,100839.50
2022-10-26T00:28:49.484Z,100831.78
2022-10-26T00:31:21.246Z,100829.25
2022-10-26T00:33:52.836Z,100831.81
2022-10-26T00:36:21.500Z,100830.94
2022-10-26T00:38:52.595Z,100828.34
2022-10-26T00:41:30.527Z,100830.09
2022-10-26T00:43:58.803Z,100816.47
2022-10-26T00:46:39.896Z,100831.78
2022-10-26T00:49:17.033Z,100813.84
2022-10-26T00:51:50.525Z,100826.44
2022-10-26T00:54:20.067Z,100832.41
2022-10-26T00:56:50.421Z,100827.25
2022-10-26T00:59:20.495Z,100826.41
2022-10-26T01:01:50.028Z,100820.50
2022-10-26T01:04:19.052Z,100827.38
2022-10-26T01:06:48.034Z,100814.66
2022-10-26T01:09:21.212Z,100823.97
2022-10-26T01:11:50.289Z,100828.31
2022-10-26T01:14:20.801Z,100822.38
2022-10-26T01:16:54.968Z,100819.84
2022-10-26T01:19:43.765Z,100822.47
2022-10-26T01:22:21.339Z,100820.78
2022-10-26T01:25:27.278Z,100834.47
2022-10-26T01:27:55.375Z,100792.22
2022-10-26T01:30:32.087Z,100837.00
2022-10-26T01:33:36.693Z,100840.41
2022-10-26T01:36:28.411Z,100833.53
2022-10-26T01:39:28.349Z,100834.34
2022-10-26T01:42:02.782Z,100835.09
2022-10-26T01:44:44.005Z,100835.00
2022-10-26T01:47:15.248Z,100836.53
2022-10-26T01:49:51.923Z,100841.50
2022-10-26T01:52:21.763Z,100837.00
2022-10-26T01:54:49.763Z,100846.81
2022-10-26T01:57:21.054Z,100832.69
2022-10-26T02:00:10.506Z,100834.03
2022-10-26T02:02:44.949Z,100839.66
2022-10-26T02:05:33.493Z,100837.50
2022-10-26T02:08:19.889Z,100831.94
2022-10-26T02:11:03.699Z,100837.34
2022-10-26T02:13:41.475Z,100830.00
2022-10-26T02:16:34.421Z,100820.03
2022-10-26T02:19:08.851Z,100820.56
2022-10-26T02:21:41.944Z,100831.13
2022-10-26T02:24:14.672Z,100837.69
2022-10-26T02:26:46.613Z,100833.19
2022-10-26T02:29:19.223Z,100832.66
2022-10-26T02:31:51.488Z,100835.88
2022-10-26T02:34:25.266Z,100841.41
2022-10-26T02:36:58.309Z,100833.25
2022-10-26T02:39:29.993Z,100829.44
2022-10-26T02:41:59.876Z,100828.97
2022-10-26T02:44:31.319Z,100820.06
2022-10-26T02:47:00.367Z,100832.63
2022-10-26T02:49:29.130Z,100831.59
2022-10-26T02:52:07.664Z,100818.50
2022-10-26T02:54:59.859Z,100819.06
2022-10-26T02:57:40.513Z,100829.16
2022-10-26T03:02:55.074Z,100828.72
2022-10-26T03:05:29.167Z,100819.00
2022-10-26T03:07:57.687Z,100818.75
2022-10-26T03:10:26.949Z,100811.56
2022-10-26T03:12:55.161Z,100810.66
2022-10-26T03:15:24.838Z,100820.88
2022-10-26T03:17:52.897Z,100821.78
2022-10-26T03:20:20.889Z,100815.59
2022-10-26T03:22:49.280Z,100815.22
2022-10-26T03:25:18.169Z,100797.16
2022-10-26T03:27:46.433Z,100787.19
2022-10-26T03:30:14.603Z,100802.88
2022-10-26T03:32:43.486Z,100824.66
2022-10-26T03:35:11.422Z,100820.88
2022-10-26T03:37:39.338Z,100819.91
2022-10-26T03:40:09.640Z,100818.94
2022-10-26T03:42:38.360Z,100818.78
2022-10-26T03:45:07.824Z,100791.06
2022-10-26T03:47:37.508Z,100810.81
2022-10-26T03:52:34.102Z,100807.31
2022-10-26T03:55:03.278Z,100813.41
2022-10-26T03:57:31.209Z,100810.69
2022-10-26T03:59:59.155Z,100806.22
2022-10-26T04:02:28.075Z,100805.16
2022-10-26T04:04:56.054Z,100807.50
2022-10-26T04:07:24.051Z,100800.50
2022-10-26T04:09:52.249Z,100799.19
2022-10-26T04:12:20.244Z,100794.47
2022-10-26T04:14:48.300Z,100786.50
2022-10-26T04:17:16.643Z,100783.97
2022-10-26T04:19:44.625Z,100798.09
2022-10-26T04:22:12.623Z,100773.09
2022-10-26T04:24:40.701Z,100795.00
2022-10-26T04:27:08.691Z,100790.47
2022-10-26T04:29:36.622Z,100782.69
2022-10-26T04:32:04.929Z,100790.88
2022-10-26T04:34:32.804Z,100786.38
2022-10-26T04:37:00.802Z,100782.81
2022-10-26T04:39:30.773Z,100785.38
2022-10-26T04:41:58.752Z,100780.13
2022-10-26T04:44:26.681Z,100778.16
2022-10-26T04:46:55.691Z,100780.59
2022-10-26T04:49:23.658Z,100782.34
2022-10-26T04:51:51.674Z,100769.47
2022-10-26T04:54:19.868Z,100783.19
2022-10-26T04:56:47.876Z,100778.84
2022-10-26T04:59:16.101Z,100774.41
2022-10-26T05:01:44.384Z,100769.09
2022-10-26T05:04:12.615Z,100767.94
2022-10-26T05:06:40.651Z,100773.97
2022-10-26T05:09:08.866Z,100762.81
2022-10-26T05:11:36.815Z,100772.44
2022-10-26T05:14:04.973Z,100765.03
2022-10-26T05:16:35.402Z,100757.94
2022-10-26T05:19:05.038Z,100759.47
2022-10-26T05:21:33.032Z,100759.47
2022-10-26T05:24:02.627Z,100759.47
2022-10-26T05:26:30.604Z,100748.19
2022-10-26T05:28:58.554Z,100753.22
2022-10-26T05:31:26.694Z,100753.91
2022-10-26T05:33:54.718Z,100746.97
2022-10-26T05:36:22.675Z,100728.97
2022-10-26T05:38:51.555Z,100751.88
2022-10-26T05:41:19.561Z,100746.53
2022-10-26T05:43:49.328Z,100755.91
2022-10-26T05:46:18.296Z,100753.31
2022-10-26T05:48:46.202Z,100754.06
2022-10-26T05:51:14.841Z,100747.13
2022-10-26T05:53:42.914Z,100750.56
2022-10-26T05:56:36.722Z,100743.63
2022-10-26T05:59:12.992Z,100734.75
2022-10-26T06:01:49.928Z,100735.44
2022-10-26T06:04:39.586Z,100742.25
2022-10-26T06:07:16.790Z,100744.66
2022-10-26T06:09:47.501Z,100745.50
2022-10-26T06:12:19.270Z,100730.19
2022-10-26T06:14:48.422Z,100737.50
2022-10-26T06:17:34.810Z,100741.69
2022-10-26T06:20:26.665Z,100742.28
2022-10-26T06:23:13.350Z,100750.66
2022-10-26T06:26:02.226Z,100742.81
2022-10-26T06:29:10.819Z,100731.34
2022-10-26T06:31:38.873Z,100741.34
2022-10-26T06:34:06.960Z,100735.06
2022-10-26T06:36:35.955Z,100722.94
2022-10-26T06:39:07.744Z,100731.41
2022-10-26T06:41:37.791Z,100736.34
2022-10-26T06:44:08.434Z,100726.81
2022-10-26T06:46:39.261Z,100726.56
2022-10-26T06:49:12.971Z,100726.38
2022-10-26T06:52:04.304Z,100720.03
2022-10-26T06:54:56.215Z,100714.66
2022-10-26T06:57:28.692Z,100713.75
2022-10-26T07:00:03.437Z,100706.03
2022-10-26T07:02:33.696Z,100708.97
2022-10-26T07:05:03.610Z,100706.28
2022-10-26T07:07:32.112Z,100707.03
2022-10-26T07:10:00.095Z,100717.34
2022-10-26T07:12:32.234Z,100712.06
2022-10-26T07:15:01.621Z,100717.09
2022-10-26T07:17:32.000Z,100709.31
2022-10-26T07:20:01.684Z,100705.78
2022-10-26T07:22:30.964Z,100706.69
2022-10-26T07:25:02.047Z,100700.59
2022-10-26T07:27:32.475Z,100701.50
2022-10-26T07:30:00.391Z,100701.50
2022-10-26T07:32:28.560Z,100702.44
2022-10-26T07:34:57.718Z,100690.63
2022-10-26T07:37:25.701Z,100676.72
2022-10-26T07:39:53.635Z,100701.66
2022-10-26T07:42:22.493Z,100705.19
2022-10-26T07:44:50.509Z,100699.16
2022-10-26T07:47:18.531Z,100694.81
2022-10-26T07:49:47.494Z,100678.47
2022-10-26T07:52:15.493Z,100687.19
2022-10-26T07:54:43.500Z,100681.81
2022-10-26T07:57:13.097Z,100685.16
2022-10-26T07:59:41.089Z,100685.16
2022-10-26T08:02:10.818Z,100687.69
2022-10-26T08:04:39.883Z,100679.03
2022-10-26T08:07:07.807Z,100682.56
2022-10-26T08:09:35.885Z,100670.59
2022-10-26T08:12:05.512Z,100659.53
2022-10-26T08:14:33.494Z,100664.53
2022-10-26T08:17:01.573Z,100679.38
2022-10-26T08:19:31.696Z,100682.66
2022-10-26T08:21:59.624Z,100673.19
2022-10-26T08:24:27.730Z,100664.53
2022-10-26T08:26:59.309Z,100666.41
2022-10-26T08:29:27.224Z,100672.59
2022-10-26T08:31:55.281Z,100636.56
2022-10-26T08:34:23.500Z,100684.75
2022-10-26T08:36:51.419Z,100690.03
2022-10-26T08:39:19.404Z,100667.06
2022-10-26T08:41:54.476Z,100669.59
2022-10-26T08:44:38.324Z,100671.50
2022-10-26T08:50:04.248Z,100677.72
2022-10-26T08:52:42.676Z,100664.91
2022-10-26T08:55:18.898Z,100665.81
2022-10-26T08:57:51.276Z,100669.41
2022-10-26T09:00:22.621Z,100655.84
2022-10-26T09:02:52.118Z,100666.16
2022-10-26T09:05:24.148Z,100661.03
2022-10-26T09:08:12.187Z,100657.59
2022-10-26T09:11:10.021Z,100655.00
2022-10-26T09:13:58.884Z,100655.75
2022-10-26T09:16:40.020Z,100658.28
2022-10-26T09:19:54.755Z,100654.75
2022-10-26T09:22:33.706Z,100654.75
2022-10-26T09:25:20.216Z,100666.81
2022-10-26T09:27:57.662Z,100658.19
2022-10-26T09:30:25.750Z,100664.22
2022-10-26T09:33:16.212Z,100659.44
2022-10-26T09:35:53.272Z,100661.88
2022-10-26T09:38:44.189Z,100667.31
2022-10-26T09:41:21.168Z,100663.97
2022-10-26T09:44:30.452Z,100658.94
2022-10-26T09:47:07.445Z,100653.06
2022-10-26T09:50:08.441Z,100652.28
2022-10-26T09:52:36.446Z,100638.47
2022-10-26T09:55:04.568Z,100615.19
2022-10-26T09:57:33.094Z,100646.50
2022-10-26T10:00:01.257Z,100645.00
2022-10-26T10:02:39.535Z,100639.22
2022-10-26T10:05:49.829Z,100637.88
2022-10-26T10:08:37.697Z,100643.31
2022-10-26T10:11:12.269Z,100638.34
2022-10-26T10:13:43.304Z,100643.78
2022-10-26T10:16:25.520Z,100637.00
2022-10-26T10:18:57.512Z,100636.66
2022-10-26T10:21:46.571Z,100646.28
2022-10-26T10:24:37.604Z,100647.47
2022-10-26T10:27:17.321Z,100642.59
2022-10-26T10:29:46.852Z,100639.34
2022-10-26T10:32:23.981Z,100631.34
2022-10-26T10:34:54.957Z,100651.31
2022-10-26T10:37:28.485Z,100651.78
2022-10-26T10:40:20.949Z,100662.47
2022-10-26T10:42:51.203Z,100656.75
2022-10-26T10:45:28.754Z,100665.56
2022-10-26T10:48:02.446Z,100666.84
2022-10-26T10:50:32.190Z,100673.25
2022-10-26T10:53:18.299Z,100671.94
2022-10-26T10:56:15.347Z,100670.78
2022-10-26T10:59:02.744Z,100668.63
2022-10-26T11:01:41.450Z,100671.63
2022-10-26T11:04:34.115Z,100679.81
2022-10-26T11:07:05.192Z,100658.78
2022-10-26T11:09:37.660Z,100666.75
2022-10-26T11:12:30.007Z,100663.59
2022-10-26T11:15:06.947Z,100655.28
2022-10-26T11:17:47.694Z,100671.16
2022-10-26T11:20:24.335Z,100663.84
2022-10-26T11:23:10.754Z,100660.19
2022-10-26T11:25:51.407Z,100659.56
2022-10-26T11:28:38.268Z,100668.16
2022-10-26T11:31:15.239Z,100670.13
2022-10-26T11:33:49.362Z,100668.63
2022-10-26T11:36:23.580Z,100662.91
2022-10-26T11:39:06.333Z,100669.13
2022-10-26T11:41:43.857Z,100662.56
2022-10-26T11:44:19.049Z,100656.16
2022-10-26T11:47:04.814Z,100661.31
2022-10-26T11:50:17.114Z,100654.81
2022-10-26T11:52:49.461Z,100652.47
2022-10-26T11:55:19.703Z,100666.63
2022-10-26T11:57:48.361Z,100659.25
2022-10-26T12:00:22.244Z,100656.06
2022-10-26T12:03:09.546Z,100653.78
2022-10-26T12:05:49.053Z,100644.59
2022-10-26T12:08:28.721Z,100642.47
2022-10-26T12:13:58.245Z,100639.88
2022-10-26T12:16:48.215Z,100634.97
2022-10-26T12:19:23.381Z,100625.78
2022-10-26T12:21:52.596Z,100619.13
2022-10-26T12:24:24.568Z,100618.38
2022-10-26T12:26:54.311Z,100621.13
2022-10-26T12:29:32.144Z,100618.69
2022-10-26T12:32:01.434Z,100638.34
2022-10-26T12:34:32.170Z,100624.63
2022-10-26T12:37:00.159Z,100625.47
2022-10-26T12:39:37.515Z,100612.00
2022-10-26T12:42:11.416Z,100623.19
2022-10-26T12:44:41.916Z,100630.25
2022-10-26T12:47:11.753Z,100636.66
2022-10-26T12:50:08.940Z,100630.91
2022-10-26T12:52:43.543Z,100630.13
2022-10-26T12:55:30.140Z,100626.75
2022-10-26T12:58:20.229Z,100635.50
2022-10-26T13:01:08.331Z,100623.69
2022-10-26T13:03:59.471Z,100622.09
2022-10-26T13:06:46.027Z,100610.09
2022-10-26T13:09:30.329Z,100614.66
2022-10-26T13:12:06.872Z,100629.78
2022-10-26T13:14:43.677Z,100624.84
2022-10-26T13:17:28.953Z,100616.44
2022-10-26T13:20:01.259Z,100619.13
2022-10-26T13:25:33.492Z,100620.88
2022-10-26T13:28:27.449Z,100615.00
2022-10-26T13:30:57.681Z,100622.66
2022-10-26T13:33:40.708Z,100621.72
2022-10-26T13:36:41.559Z,100608.81
2022-10-26T13:39:21.315Z,100612.34
2022-10-26T13:41:53.312Z,100608.16
2022-10-26T13:44:26.874Z,100587.16
2022-10-26T13:47:11.088Z,100601.53
2022-10-26T13:49:46.310Z,100611.13
2022-10-26T13:52:31.605Z,100597.44
2022-10-26T13:55:09.044Z,100604.34
2022-10-26T13:57:42.317Z,100599.19
2022-10-26T14:00:22.952Z,100598.13
2022-10-26T14:02:52.257Z,100598.84
2022-10-26T14:05:20.809Z,100585.78
2022-10-26T14:07:55.735Z,100595.09
2022-10-26T14:10:31.732Z,100592.22
2022-10-26T14:13:02.019Z,100590.16
2022-10-26T14:15:33.080Z,100588.97
2022-10-26T14:18:03.426Z,100582.56
2022-10-26T14:20:33.037Z,100587.41
2022-10-26T14:23:00.646Z,100582.00
2022-10-26T14:25:41.957Z,100543.38
2022-10-26T14:28:30.165Z,100584.72
2022-10-26T14:31:28.118Z,100585.75
2022-10-26T14:33:57.742Z,100586.81
2022-10-26T14:36:55.147Z,100585.19
2022-10-26T14:39:44.298Z,100591.38
2022-10-26T14:42:23.072Z,100594.78
2022-10-26T14:44:51.098Z,100578.59
2022-10-26T14:47:25.827Z,100588.25
2022-10-26T14:49:54.431Z,100574.63
2022-10-26T14:52:31.113Z,100579.03
2022-10-26T14:55:04.283Z,100575.63
2022-10-26T14:57:35.638Z,100571.41
2022-10-26T15:00:16.435Z,100568.84
2022-10-26T15:02:49.616Z,100586.09
2022-10-26T15:05:33.219Z,100565.59
2022-10-26T15:08:03.909Z,100569.06
2022-10-26T15:10:38.050Z,100575.97
2022-10-26T15:13:32.038Z,100570.81
2022-10-26T15:16:17.759Z,100563.91
2022-10-26T15:18:48.341Z,100565.53
2022-10-26T15:21:27.432Z,100556.91
2022-10-26T15:23:56.989Z,100557.75
2022-10-26T15:26:26.266Z,100550.78
2022-10-26T15:28:56.552Z,100552.47
2022-10-26T15:31:33.994Z,100547.25
2022-10-26T15:34:01.907Z,100549.81
2022-10-26T15:36:32.167Z,100542.84
2022-10-26T15:39:00.569Z,100546.28
2022-10-26T15:41:49.355Z,100543.81
2022-10-26T15:44:23.005Z,100542.16
2022-10-26T15:46:51.283Z,100547.25
2022-10-26T15:49:22.514Z,100543.84
2022-10-26T15:51:50.667Z,100547.38
2022-10-26T15:54:18.774Z,100539.69
2022-10-26T15:56:47.923Z,100538.06
2022-10-26T15:59:18.312Z,100518.59
2022-10-26T16:01:46.758Z,100530.41
2022-10-26T16:04:15.681Z,100529.56
2022-10-26T16:06:43.830Z,100516.13
2022-10-26T16:09:16.663Z,100526.31
2022-10-26T16:11:47.680Z,100532.56
2022-10-26T16:14:15.622Z,100525.78
2022-10-26T16:16:44.748Z,100529.25
2022-10-26T16:22:02.220Z,100519.78
2022-10-26T16:24:32.046Z,100524.94
2022-10-26T16:27:00.052Z,100524.88
2022-10-26T16:29:28.065Z,100511.16
2022-10-26T16:31:56.142Z,100514.50
2022-10-26T16:34:24.065Z,100511.94
2022-10-26T16:36:52.018Z,100514.56
2022-10-26T16:39:20.217Z,100508.69
2022-10-26T16:41:51.232Z,100503.59
2022-10-26T16:44:19.251Z,100499.41
2022-10-26T16:46:47.377Z,100501.19
2022-10-26T16:49:15.362Z,100495.38
2022-10-26T16:51:43.382Z,100503.94
2022-10-26T16:54:11.494Z,100499.75
2022-10-26T16:56:39.375Z,100501.38
2022-10-26T16:59:07.286Z,100479.47
2022-10-26T17:01:36.405Z,100496.03
2022-10-26T17:04:04.559Z,100488.31
2022-10-26T17:06:32.653Z,100490.16
2022-10-26T17:09:00.788Z,100492.81
2022-10-26T17:11:28.764Z,100481.00
2022-10-26T17:13:57.258Z,100481.28
2022-10-26T17:16:26.651Z,100477.94
2022-10-26T17:18:56.422Z,100484.00
2022-10-26T17:21:46.160Z,100471.22
2022-10-26T17:24:14.311Z,100466.91
2022-10-26T17:26:43.027Z,100462.72
2022-10-26T17:29:15.413Z,100453.38
2022-10-26T17:31:43.459Z,100453.66
2022-10-26T17:34:11.438Z,100445.09
2022-10-26T17:36:39.771Z,100441.00
2022-10-26T17:39:07.729Z,100404.81
2022-10-26T17:41:35.731Z,100438.38
2022-10-26T17:44:04.628Z,100434.13
2022-10-26T17:46:32.616Z,100427.34
2022-10-26T17:49:01.881Z,100428.25
2022-10-26T17:51:31.914Z,100430.00
2022-10-26T17:54:00.578Z,100426.50
2022-10-26T17:56:32.166Z,100417.06
2022-10-26T17:59:08.468Z,100418.00
2022-10-26T18:01:36.451Z,100414.72
2022-10-26T18:04:04.608Z,100419.81
2022-10-26T18:06:32.843Z,100412.91
2022-10-26T18:09:00.909Z,100416.34
2022-10-26T18:11:28.972Z,100407.66
2022-10-26T18:13:58.395Z,100403.41
2022-10-26T18:16:28.514Z,100409.44
2022-10-26T18:19:02.506Z,100400.09
2022-10-26T18:21:33.189Z,100403.69
2022-10-26T18:24:01.147Z,100411.53
2022-10-26T18:26:31.272Z,100397.81
2022-10-26T18:29:01.506Z,100398.53
2022-10-26T18:31:31.719Z,100396.81
2022-10-26T18:34:02.429Z,100397.59
2022-10-26T18:36:32.834Z,100398.47
2022-10-26T18:39:01.200Z,100404.47
2022-10-26T18:41:30.101Z,100394.22
2022-10-26T18:44:02.728Z,100391.66
2022-10-26T18:46:34.811Z,100401.13
2022-10-26T18:49:02.813Z,100395.97
2022-10-26T18:51:34.634Z,100385.78
2022-10-26T18:54:03.088Z,100396.03
2022-10-26T18:56:31.493Z,100389.25
2022-10-26T18:59:02.302Z,100388.28
2022-10-26T19:01:33.352Z,100382.31
2022-10-26T19:04:08.882Z,100384.03
2022-10-26T19:06:40.231Z,100395.25
2022-10-26T19:09:10.944Z,100391.88
2022-10-26T19:11:40.732Z,100388.53
2022-10-26T19:14:09.550Z,100374.16
2022-10-26T19:16:45.726Z,100382.53
2022-10-26T19:19:15.585Z,100379.91
2022-10-26T19:21:44.241Z,100379.06
2022-10-26T19:24:16.587Z,100368.78
2022-10-26T19:26:45.051Z,100369.59
2022-10-26T19:29:16.486Z,100362.72
2022-10-26T19:31:46.836Z,100360.09
2022-10-26T19:34:16.538Z,100360.81
2022-10-26T19:36:46.692Z,100351.28
2022-10-26T19:39:17.694Z,100352.13
2022-10-26T19:41:47.146Z,100346.16
2022-10-26T19:44:16.172Z,100347.88
2022-10-26T19:46:45.538Z,100344.41
2022-10-26T19:49:13.652Z,100343.56
2022-10-26T19:51:42.232Z,100342.72
2022-10-26T19:54:10.418Z,100346.16
2022-10-26T19:56:39.023Z,100350.44
2022-10-26T19:59:09.054Z,100352.19
2022-10-26T20:01:37.627Z,100342.78
2022-10-26T20:04:06.828Z,100342.13
2022-10-26T20:06:35.719Z,100344.75
2022-10-26T20:09:05.839Z,100363.38
2022-10-26T20:11:35.702Z,100356.50
2022-10-26T20:14:05.968Z,100350.50
2022-10-26T20:16:34.181Z,100342.00
2022-10-26T20:19:02.325Z,100333.56
2022-10-26T20:21:30.260Z,100341.84
2022-10-26T20:24:03.776Z,100343.56
2022-10-26T20:26:33.838Z,100342.50
2022-10-26T20:29:03.699Z,100291.91
2022-10-26T20:31:31.865Z,100329.56
2022-10-26T20:33:59.812Z,100336.97
2022-10-26T20:36:27.824Z,100331.94
2022-10-26T20:38:56.283Z,100322.72
2022-10-26T20:41:24.533Z,100329.25
2022-10-26T20:43:55.679Z,100325.97
2022-10-26T20:46:28.180Z,100333.63
2022-10-26T20:48:56.558Z,100343.22
2022-10-26T20:51:52.004Z,100336.38
2022-10-26T20:54:40.518Z,100327.94
2022-10-26T20:57:16.607Z,100345.72
2022-10-26T20:59:49.757Z,100344.88
2022-10-26T21:02:17.713Z,100337.94
2022-10-26T21:04:45.800Z,100330.22
2022-10-26T21:07:14.200Z,100319.00
2022-10-26T21:09:42.276Z,100323.97
2022-10-26T21:12:11.676Z,100318.78
2022-10-26T21:14:41.374Z,100316.06
2022-10-26T21:17:09.998Z,100296.53
2022-10-26T21:19:42.111Z,100310.78
2022-10-26T21:22:10.158Z,100298.69
2022-10-26T21:24:38.159Z,100295.22
2022-10-26T21:27:06.342Z,100288.56
2022-10-26T21:29:34.228Z,100290.00
2022-10-26T21:32:02.198Z,100294.25
2022-10-26T21:34:31.234Z,100286.47
2022-10-26T21:36:59.185Z,100286.47
2022-10-26T21:39:27.109Z,100289.72
2022-10-26T21:41:55.422Z,100287.13
2022-10-26T21:44:39.871Z,100291.53
2022-10-26T21:47:10.466Z,100285.63
2022-10-26T21:49:38.168Z,100268.38
2022-10-26T21:52:07.552Z,100282.13
2022-10-26T21:54:35.601Z,100253.09
2022-10-26T21:57:03.516Z,100264.84
2022-10-26T21:59:31.468Z,100264.84
2022-10-26T22:01:59.576Z,100260.53
2022-10-26T22:04:28.728Z,100256.09
2022-10-26T22:06:56.695Z,100264.59
2022-10-26T22:09:25.997Z,100268.78
2022-10-26T22:11:53.939Z,100273.81
2022-10-26T22:14:22.675Z,100277.09
2022-10-26T22:16:51.468Z,100237.50
2022-10-26T22:19:19.474Z,100278.72
2022-10-26T22:21:47.411Z,100268.34
2022-10-26T22:24:17.672Z,100268.97
2022-10-26T22:26:45.668Z,100268.84
2022-10-26T22:29:13.666Z,100264.34
2022-10-26T22:31:41.944Z,100260.22
2022-10-26T22:34:16.297Z,100273.56
2022-10-26T22:36:45.174Z,100252.09
2022-10-26T22:39:14.645Z,100262.78
2022-10-26T22:41:42.757Z,100257.44
2022-10-26T22:44:10.717Z,100275.31
2022-10-26T22:46:38.787Z,100274.25
2022-10-26T22:49:06.725Z,100262.41
2022-10-26T22:51:35.936Z,100267.03
2022-10-26T22:55:05.758Z,100277.06
2022-10-26T22:57:33.725Z,100272.28
2022-10-26T23:00:01.650Z,100267.53
2022-10-26T23:02:33.198Z,100284.31
2022-10-26T23:05:01.213Z,100280.41
2022-10-26T23:07:30.420Z,100268.88
2022-10-26T23:09:58.731Z,100269.50
2022-10-26T23:12:26.687Z,100269.97
2022-10-26T23:14:54.719Z,100270.38
2022-10-26T23:17:23.619Z,100278.63
2022-10-26T23:19:51.552Z,100280.84
2022-10-26T23:22:19.512Z,100287.47
2022-10-26T23:24:49.144Z,100276.84
2022-10-26T23:27:16.791Z,100279.91
2022-10-26T23:32:17.756Z,100283.84
2022-10-26T23:34:45.691Z,100269.34
2022-10-26T23:37:13.837Z,100253.84
2022-10-26T23:39:41.962Z,100281.59
2022-10-26T23:42:09.883Z,100226.78
2022-10-26T23:44:37.815Z,100268.38
2022-10-26T23:47:08.640Z,100269.97
2022-10-26T23:49:36.623Z,100262.84
2022-10-26T23:52:04.611Z,100271.34
2022-10-26T23:54:32.670Z,100266.09
2022-10-26T23:57:00.656Z,100255.00
2022-10-26T23:59:28.593Z,100259.94
